createdAt,value
2023-03-22T00:00:30.557Z,100.00
2023-03-22T00:05:58.056Z,100.00
2023-03-22T00:11:22.270Z,100.00
2023-03-22T00:16:46.630Z,100.00
2023-03-22T00:22:09.075Z,100.00
2023-03-22T00:27:32.203Z,100.00
2023-03-22T00:32:54.397Z,100.00
2023-03-22T00:38:16.283Z,100.00
2023-03-22T00:43:38.740Z,100.00
2023-03-22T00:49:01.029Z,100.00
2023-03-22T00:54:23.457Z,100.00
2023-03-22T00:59:45.913Z,100.00
2023-03-22T01:05:08.600Z,100.00
2023-03-22T01:10:31.701Z,100.00
2023-03-22T01:15:54.255Z,100.00
2023-03-22T01:21:16.728Z,100.00
2023-03-22T01:26:44.803Z,100.00
2023-03-22T01:32:07.042Z,100.00
2023-03-22T01:37:29.373Z,100.00
2023-03-22T01:42:53.906Z,100.00
2023-03-22T01:48:34.640Z,100.00
2023-03-22T01:54:01.968Z,100.00
2023-03-22T01:59:25.698Z,100.00
2023-03-22T02:05:04.745Z,100.00
2023-03-22T02:10:28.639Z,100.00
2023-03-22T02:16:11.308Z,100.00
2023-03-22T02:22:30.498Z,100.00
2023-03-22T02:28:19.858Z,100.00
2023-03-22T02:34:03.366Z,100.00
2023-03-22T02:39:34.319Z,100.00
2023-03-22T02:45:05.927Z,100.00
2023-03-22T02:50:51.259Z,100.00
2023-03-22T02:56:39.876Z,100.00
2023-03-22T03:09:49.145Z,100.00
2023-03-22T03:15:19.836Z,100.00
2023-03-22T03:21:03.074Z,100.00
2023-03-22T03:26:46.982Z,100.00
2023-03-22T03:32:16.141Z,100.00
2023-03-22T03:37:43.967Z,100.00
2023-03-22T03:43:07.115Z,100.00
2023-03-22T03:48:32.799Z,100.00
2023-03-22T03:53:54.903Z,100.00
2023-03-22T03:59:19.372Z,100.00
2023-03-22T04:04:44.351Z,100.00
2023-03-22T04:10:08.307Z,100.00
2023-03-22T04:15:30.170Z,100.00
2023-03-22T04:20:57.648Z,100.00
2023-03-22T04:26:22.089Z,100.00
2023-03-22T04:32:01.265Z,100.00
2023-03-22T04:37:34.569Z,100.00
2023-03-22T04:43:12.214Z,100.00
2023-03-22T04:49:05.970Z,100.00
2023-03-22T04:54:33.279Z,100.00
2023-03-22T04:59:56.855Z,100.00
2023-03-22T05:05:19.456Z,100.00
2023-03-22T05:10:43.392Z,100.00
2023-03-22T05:16:07.569Z,100.00
2023-03-22T05:21:41.102Z,100.00
2023-03-22T05:27:04.343Z,100.00
2023-03-22T05:32:29.809Z,100.00
2023-03-22T05:37:53.791Z,100.00
2023-03-22T05:43:18.164Z,100.00
2023-03-22T05:48:44.096Z,100.00
2023-03-22T05:54:08.146Z,100.00
2023-03-22T05:59:38.588Z,100.00
2023-03-22T06:11:58.231Z,100.00
2023-03-22T06:17:24.051Z,100.00
2023-03-22T06:23:18.383Z,100.00
2023-03-22T06:29:04.264Z,100.00
2023-03-22T06:34:29.291Z,100.00
2023-03-22T06:39:53.114Z,100.00
2023-03-22T06:45:20.336Z,100.00
2023-03-22T06:50:50.796Z,100.00
2023-03-22T06:56:20.324Z,100.00
2023-03-22T07:01:49.157Z,100.00
2023-03-22T07:07:11.715Z,100.00
2023-03-22T07:12:34.191Z,100.00
2023-03-22T07:18:03.243Z,100.00
2023-03-22T07:23:29.012Z,100.00
2023-03-22T07:28:57.716Z,100.00
2023-03-22T07:34:24.012Z,100.00
2023-03-22T07:40:01.975Z,100.00
2023-03-22T07:45:27.157Z,100.00
2023-03-22T07:51:19.818Z,100.00
2023-03-22T07:56:43.457Z,100.00
2023-03-22T08:02:06.123Z,100.00
2023-03-22T08:07:38.049Z,100.00
2023-03-22T08:13:00.210Z,100.00
2023-03-22T08:18:22.201Z,100.00
2023-03-22T08:23:44.579Z,100.00
2023-03-22T08:29:07.001Z,100.00
2023-03-22T08:34:31.948Z,100.00
2023-03-22T08:39:53.845Z,100.00
2023-03-22T08:45:20.878Z,100.00
2023-03-22T08:50:50.985Z,100.00
2023-03-22T08:57:00.687Z,100.00
2023-03-22T09:03:15.676Z,95.14
2023-03-22T09:10:44.474Z,94.80
2023-03-22T09:15:41.891Z,90.64
2023-03-22T09:21:17.148Z,89.33
2023-03-22T09:27:09.789Z,86.53
2023-03-22T09:40:22.591Z,87.56
2023-03-22T09:45:54.106Z,84.08
2023-03-22T09:51:46.338Z,83.43
2023-03-22T09:57:37.850Z,85.34
2023-03-22T10:03:30.895Z,82.71
2023-03-22T10:09:25.035Z,81.30
2023-03-22T10:15:13.020Z,82.57
2023-03-22T10:20:58.718Z,79.85
2023-03-22T10:26:40.169Z,80.60
2023-03-22T10:32:19.029Z,75.75
2023-03-22T10:37:42.004Z,77.85
2023-03-22T10:43:24.401Z,75.27
2023-03-22T10:48:50.417Z,76.25
2023-03-22T10:54:17.595Z,76.28
2023-03-22T10:59:53.015Z,75.25
2023-03-22T11:05:38.878Z,75.72
2023-03-22T11:11:02.327Z,75.97
2023-03-22T11:16:25.743Z,75.03
2023-03-22T11:21:54.787Z,72.82
2023-03-22T11:27:32.022Z,73.85
2023-03-22T11:33:11.876Z,73.55
2023-03-22T11:38:41.199Z,74.87
2023-03-22T11:44:08.945Z,73.96
2023-03-22T11:49:46.253Z,72.66
2023-03-22T11:55:15.150Z,71.69
2023-03-22T12:00:40.475Z,72.13
2023-03-22T12:06:08.512Z,71.75
2023-03-22T12:11:40.016Z,70.03
2023-03-22T12:17:25.132Z,67.56
2023-03-22T12:22:53.239Z,66.57
2023-03-22T12:28:20.348Z,64.66
2023-03-22T12:33:49.629Z,65.97
2023-03-22T12:39:41.484Z,67.46
2023-03-22T12:45:11.751Z,66.85
2023-03-22T12:50:42.906Z,67.02
2023-03-22T12:56:05.913Z,66.68
2023-03-22T13:01:36.792Z,66.90
2023-03-22T13:07:16.047Z,66.99
2023-03-22T13:12:38.353Z,68.35
2023-03-22T13:18:03.676Z,68.50
2023-03-22T13:23:29.168Z,69.37
2023-03-22T13:28:59.578Z,71.05
2023-03-22T13:34:33.412Z,69.56
2023-03-22T13:39:55.337Z,68.82
2023-03-22T13:45:34.506Z,69.01
2023-03-22T13:50:58.828Z,70.30
2023-03-22T13:56:54.729Z,71.59
2023-03-22T14:02:25.487Z,71.65
2023-03-22T14:07:50.139Z,71.73
2023-03-22T14:13:30.283Z,71.04
2023-03-22T14:18:52.364Z,69.31
